createdAt,value
2018-01-04T00:01:56.011Z,5.00
2018-01-04T00:04:22.293Z,6.80
2018-01-04T00:06:48.629Z,5.15
2018-01-04T00:09:15.778Z,6.82
2018-01-04T00:11:42.105Z,5.65
2018-01-04T00:14:08.376Z,4.90
2018-01-04T00:16:34.785Z,6.30
2018-01-04T00:19:01.121Z,5.47
2018-01-04T00:21:27.421Z,5.82
2018-01-04T00:23:53.749Z,6.45
2018-01-04T00:26:20.104Z,7.00
2018-01-04T00:28:46.434Z,6.30
2018-01-04T00:31:12.742Z,6.70
2018-01-04T00:33:39.060Z,6.07
2018-01-04T00:36:05.407Z,5.70
2018-01-04T00:38:31.700Z,7.07
2018-01-04T00:40:58.700Z,6.30
2018-01-04T00:43:24.990Z,5.47
2018-01-04T00:45:51.333Z,9.20
2018-01-04T00:48:17.631Z,7.47
2018-01-04T00:50:44.690Z,6.37
2018-01-04T00:53:10.949Z,7.40
2018-01-04T00:55:37.223Z,8.13
2018-01-04T00:58:03.614Z,7.28
2018-01-04T01:00:29.885Z,5.75
2018-01-04T01:02:56.883Z,6.68
2018-01-04T01:05:23.137Z,6.32
2018-01-04T01:07:49.429Z,5.80
2018-01-04T01:10:15.684Z,8.88
2018-01-04T01:12:43.009Z,5.20
2018-01-04T01:15:09.309Z,6.87
2018-01-04T01:17:36.384Z,6.10
2018-01-04T01:20:02.649Z,5.80
2018-01-04T01:22:28.961Z,5.80
2018-01-04T01:27:15.346Z,5.70
2018-01-04T01:29:42.313Z,6.63
2018-01-04T01:32:08.669Z,6.25
2018-01-04T01:34:34.914Z,5.45
2018-01-04T01:37:01.949Z,6.35
2018-01-04T01:39:28.232Z,5.53
2018-01-04T01:41:54.494Z,6.50
2018-01-04T01:44:20.797Z,5.73
2018-01-04T01:46:47.782Z,5.80
2018-01-04T01:49:14.094Z,5.83
2018-01-04T01:51:40.358Z,5.70
2018-01-04T01:54:06.602Z,7.57
2018-01-04T01:56:33.610Z,6.15
2018-01-04T01:58:59.878Z,7.27
2018-01-04T02:01:26.111Z,4.50
2018-01-04T02:03:53.477Z,5.78
2018-01-04T02:06:20.654Z,6.60
2018-01-04T02:08:46.922Z,5.60
2018-01-04T02:11:13.179Z,6.53
2018-01-04T02:13:39.541Z,5.23
2018-01-04T02:16:05.813Z,5.50
2018-01-04T02:21:42.074Z,5.90
2018-01-04T02:24:20.540Z,6.80
2018-01-04T02:27:00.176Z,6.50
2018-01-04T02:29:53.421Z,7.93
2018-01-04T02:32:31.913Z,5.73
2018-01-04T02:35:10.347Z,6.30
2018-01-04T02:37:49.154Z,6.13
2018-01-04T02:40:27.766Z,7.00
2018-01-04T02:43:06.402Z,5.97
2018-01-04T02:45:57.535Z,7.50
2018-01-04T02:48:23.793Z,5.33
2018-01-04T02:50:50.777Z,6.70
2018-01-04T02:53:17.092Z,5.47
2018-01-04T02:55:43.341Z,7.50
2018-01-04T02:58:09.686Z,5.80
2018-01-04T03:00:35.952Z,6.45
2018-01-04T03:03:02.213Z,6.00
2018-01-04T03:05:28.525Z,5.27
2018-01-04T03:07:54.828Z,7.23
2018-01-04T03:10:21.861Z,7.00
2018-01-04T03:12:48.137Z,7.30
2018-01-04T03:15:15.342Z,6.90
2018-01-04T03:17:41.604Z,7.22
2018-01-04T03:20:08.633Z,5.28
2018-01-04T03:22:41.141Z,5.57
2018-01-04T03:25:14.153Z,6.03
2018-01-04T03:27:46.455Z,6.53
2018-01-04T03:30:19.985Z,6.35
2018-01-04T03:32:52.778Z,8.10
2018-01-04T03:35:25.128Z,6.60
2018-01-04T03:37:57.513Z,8.15
2018-01-04T03:40:29.970Z,6.05
2018-01-04T03:43:02.470Z,6.90
2018-01-04T03:45:34.526Z,8.43
2018-01-04T03:48:06.569Z,6.90
2018-01-04T03:50:48.365Z,6.63
2018-01-04T03:53:20.578Z,7.20
2018-01-04T03:55:52.969Z,7.83
2018-01-04T03:58:19.997Z,6.93
2018-01-04T04:00:52.318Z,8.00
2018-01-04T04:03:18.364Z,7.78
2018-01-04T04:05:51.281Z,7.55
2018-01-04T04:08:24.131Z,6.45
2018-01-04T04:10:50.994Z,8.70
2018-01-04T04:13:17.058Z,7.78
2018-01-04T04:15:43.849Z,7.27
2018-01-04T04:18:09.931Z,9.48
2018-01-04T04:20:36.740Z,6.95
2018-01-04T04:23:02.825Z,7.03
2018-01-04T04:25:28.906Z,9.05
2018-01-04T04:27:55.753Z,6.25
2018-01-04T04:30:22.597Z,7.00
2018-01-04T04:32:49.447Z,7.50
2018-01-04T04:35:16.266Z,7.72
2018-01-04T04:37:42.322Z,8.63
2018-01-04T04:40:08.397Z,8.40
2018-01-04T04:42:34.472Z,6.37
2018-01-04T04:45:00.567Z,7.60
2018-01-04T04:47:26.641Z,8.90
2018-01-04T04:49:52.714Z,7.00
2018-01-04T04:52:18.762Z,7.43
2018-01-04T04:54:45.581Z,7.87
2018-01-04T04:57:11.641Z,7.00
2018-01-04T04:59:38.454Z,7.85
2018-01-04T05:02:04.529Z,7.12
2018-01-04T05:04:30.613Z,7.60
2018-01-04T05:06:56.665Z,7.20
2018-01-04T05:09:23.466Z,7.95
2018-01-04T05:11:49.525Z,8.10
2018-01-04T05:14:16.262Z,7.75
2018-01-04T05:16:43.073Z,8.83
2018-01-04T05:19:09.129Z,8.98
2018-01-04T05:21:35.937Z,7.70
2018-01-04T05:24:01.996Z,7.68
2018-01-04T05:26:28.059Z,7.72
2018-01-04T05:28:54.113Z,7.97
2018-01-04T05:31:20.160Z,8.32
2018-01-04T05:33:46.237Z,8.70
2018-01-04T05:36:12.293Z,7.50
2018-01-04T05:38:38.352Z,8.30
2018-01-04T05:41:05.166Z,7.87
2018-01-04T05:43:31.213Z,7.00
2018-01-04T05:45:57.989Z,8.40
2018-01-04T05:48:24.084Z,8.20
2018-01-04T05:50:50.861Z,8.67
2018-01-04T05:53:16.892Z,8.50
2018-01-04T05:55:42.938Z,8.60
2018-01-04T05:58:09.006Z,7.87
2018-01-04T06:00:35.101Z,7.50
2018-01-04T06:03:01.149Z,6.47
2018-01-04T06:05:27.925Z,7.15
2018-01-04T06:07:53.966Z,9.65
2018-01-04T06:10:20.082Z,8.68
2018-01-04T06:12:46.132Z,11.37
2018-01-04T06:15:12.503Z,7.33
2018-01-04T06:17:39.278Z,8.43
2018-01-04T06:20:05.321Z,8.00
2018-01-04T06:22:31.372Z,8.63
2018-01-04T06:24:57.411Z,8.80
2018-01-04T06:27:24.185Z,7.90
2018-01-04T06:29:50.222Z,6.70
2018-01-04T06:32:16.313Z,7.20
2018-01-04T06:34:43.393Z,5.70
2018-01-04T06:37:09.694Z,8.60
2018-01-04T06:39:36.734Z,8.80
2018-01-04T06:42:03.577Z,6.97
2018-01-04T06:44:30.559Z,6.67
2018-01-04T06:46:56.837Z,8.10
2018-01-04T06:49:23.838Z,9.23
2018-01-04T06:51:50.076Z,7.50
2018-01-04T06:54:16.334Z,7.07
2018-01-04T06:56:42.574Z,6.50
2018-01-04T06:59:09.606Z,7.77
2018-01-04T07:01:35.823Z,6.50
2018-01-04T07:04:02.797Z,7.73
2018-01-04T07:06:29.791Z,8.05
2018-01-04T07:08:56.088Z,6.77
2018-01-04T07:11:23.082Z,6.97
2018-01-04T07:13:49.117Z,6.20
2018-01-04T07:16:15.345Z,6.90
2018-01-04T07:18:41.657Z,6.72
2018-01-04T07:21:07.892Z,6.43
2018-01-04T07:23:34.125Z,6.73
2018-01-04T07:26:00.406Z,6.43
2018-01-04T07:28:27.400Z,6.93
2018-01-04T07:30:53.660Z,5.80
2018-01-04T07:33:19.925Z,6.60
2018-01-04T07:35:46.189Z,7.10
2018-01-04T07:38:12.503Z,6.55
2018-01-04T07:40:38.782Z,6.53
2018-01-04T07:43:05.110Z,6.28
2018-01-04T07:45:31.392Z,5.70
2018-01-04T07:47:57.669Z,6.47
2018-01-04T07:50:23.981Z,6.82
2018-01-04T07:52:50.269Z,7.97
2018-01-04T07:55:17.268Z,6.13
2018-01-04T07:57:43.542Z,7.37
2018-01-04T08:00:09.829Z,5.80
2018-01-04T08:02:36.093Z,5.67
2018-01-04T08:05:03.092Z,6.30
2018-01-04T08:07:29.378Z,6.33
2018-01-04T08:09:56.377Z,5.60
2018-01-04T08:12:22.647Z,6.37
2018-01-04T08:14:49.733Z,5.15
2018-01-04T08:17:16.021Z,6.10
2018-01-04T08:19:42.340Z,4.87
2018-01-04T08:22:08.705Z,5.77
2018-01-04T08:24:35.710Z,5.90
2018-01-04T08:27:02.104Z,6.50
2018-01-04T08:29:28.401Z,6.47
2018-01-04T08:31:55.400Z,6.23
2018-01-04T08:34:21.666Z,6.43
2018-01-04T08:36:47.937Z,6.43
2018-01-04T08:39:14.188Z,5.00
2018-01-04T08:41:40.497Z,5.80
2018-01-04T08:44:07.625Z,5.87
2018-01-04T08:46:33.861Z,5.60
2018-01-04T08:49:00.870Z,6.90
2018-01-04T08:51:28.045Z,6.67
2018-01-04T08:53:55.062Z,5.70
2018-01-04T08:56:21.409Z,7.47
2018-01-04T08:58:48.426Z,7.60
2018-01-04T09:01:14.769Z,7.57
2018-01-04T09:03:41.400Z,6.73
2018-01-04T09:06:07.706Z,6.23
2018-01-04T09:08:34.030Z,6.50
2018-01-04T09:11:00.342Z,5.00
2018-01-04T09:13:27.396Z,5.80
2018-01-04T09:15:53.809Z,6.30
2018-01-04T09:18:20.836Z,5.87
2018-01-04T09:20:47.189Z,6.03
2018-01-04T09:23:14.224Z,7.40
2018-01-04T09:25:40.477Z,5.73
2018-01-04T09:28:07.016Z,4.70
2018-01-04T09:30:34.117Z,5.80
2018-01-04T09:33:00.387Z,4.80
2018-01-04T09:35:26.702Z,5.17
2018-01-04T09:37:52.985Z,3.90
2018-01-04T09:40:20.052Z,5.90
2018-01-04T09:42:46.321Z,4.90
2018-01-04T09:45:12.737Z,5.40
2018-01-04T09:47:38.977Z,4.50
2018-01-04T09:50:06.009Z,5.20
2018-01-04T09:52:32.305Z,5.10
2018-01-04T09:54:58.753Z,5.20
2018-01-04T09:57:25.073Z,4.83
2018-01-04T10:02:48.223Z,3.60
2018-01-04T10:05:15.253Z,5.63
2018-01-04T10:07:41.469Z,4.20
2018-01-04T10:10:07.730Z,5.10
2018-01-04T10:12:34.074Z,4.43
2018-01-04T10:15:00.479Z,3.57
2018-01-04T10:17:27.461Z,4.40
2018-01-04T10:19:53.732Z,4.10
2018-01-04T10:22:19.932Z,4.10
2018-01-04T10:24:46.210Z,3.83
2018-01-04T10:27:12.434Z,4.10
2018-01-04T10:29:38.668Z,4.47
2018-01-04T10:32:04.877Z,4.73
2018-01-04T10:34:31.145Z,3.33
2018-01-04T10:36:58.136Z,3.67
2018-01-04T10:39:24.361Z,3.73
2018-01-04T10:41:50.570Z,4.50
2018-01-04T10:44:17.660Z,3.90
2018-01-04T10:46:44.723Z,4.30
2018-01-04T10:49:10.934Z,4.30
2018-01-04T10:51:37.162Z,4.37
2018-01-04T10:54:04.201Z,3.63
2018-01-04T10:56:30.496Z,3.80
2018-01-04T10:58:57.445Z,4.37
2018-01-04T11:01:24.117Z,4.50
2018-01-04T11:03:50.317Z,3.67
2018-01-04T11:06:16.570Z,3.10
2018-01-04T11:08:42.970Z,4.60
2018-01-04T11:11:09.241Z,2.50
2018-01-04T11:13:35.476Z,3.10
2018-01-04T11:16:01.838Z,1.73
2018-01-04T11:18:28.830Z,2.03
2018-01-04T11:20:55.067Z,2.90
2018-01-04T11:23:21.460Z,2.33
2018-01-04T11:25:47.873Z,3.10
2018-01-04T11:28:14.865Z,2.40
2018-01-04T11:30:41.104Z,3.27
2018-01-04T11:33:07.383Z,7.80
2018-01-04T11:35:33.696Z,3.43
2018-01-04T11:38:00.670Z,3.57
2018-01-04T11:40:26.917Z,2.73
2018-01-04T11:42:53.140Z,2.90
2018-01-04T11:45:19.460Z,3.27
2018-01-04T11:47:49.139Z,4.30
2018-01-04T11:50:15.348Z,3.60
2018-01-04T11:52:41.598Z,3.03
2018-01-04T11:55:07.904Z,3.20
2018-01-04T11:57:34.205Z,3.10
2018-01-04T12:00:00.477Z,3.43
2018-01-04T12:02:26.684Z,2.70
2018-01-04T12:04:58.010Z,3.40
2018-01-04T12:07:24.246Z,3.43
2018-01-04T12:09:50.493Z,3.50
2018-01-04T12:12:29.613Z,3.37
2018-01-04T12:14:55.682Z,3.30
2018-01-04T12:17:24.541Z,2.90
2018-01-04T12:19:51.456Z,3.20
2018-01-04T12:22:18.274Z,4.10
2018-01-04T12:24:44.296Z,3.00
2018-01-04T12:27:10.323Z,4.50
2018-01-04T12:29:36.367Z,3.30
2018-01-04T12:32:02.415Z,3.30
2018-01-04T12:34:28.509Z,4.43
2018-01-04T12:36:59.793Z,3.40
2018-01-04T12:39:26.554Z,3.10
2018-01-04T12:41:52.592Z,4.07
2018-01-04T12:44:18.638Z,3.53
2018-01-04T12:46:44.676Z,3.00
2018-01-04T12:49:10.732Z,3.50
2018-01-04T12:51:37.528Z,3.03
2018-01-04T12:54:03.567Z,2.60
2018-01-04T12:56:29.667Z,2.60
2018-01-04T12:58:56.645Z,2.60
2018-01-04T13:01:23.694Z,2.80
2018-01-04T13:03:49.937Z,3.07
2018-01-04T13:06:16.201Z,2.60
2018-01-04T13:08:43.559Z,2.90
2018-01-04T13:11:10.549Z,3.13
2018-01-04T13:13:36.824Z,2.80
2018-01-04T13:16:03.046Z,2.30
2018-01-04T13:18:29.271Z,2.37
2018-01-04T13:20:55.611Z,2.30
2018-01-04T13:23:21.909Z,1.80
2018-01-04T13:25:48.130Z,2.50
2018-01-04T13:28:14.493Z,2.30
2018-01-04T13:30:40.915Z,2.43
2018-01-04T13:33:07.225Z,1.70
2018-01-04T13:35:33.475Z,2.00
2018-01-04T13:37:59.767Z,2.37
2018-01-04T13:40:26.012Z,3.00
2018-01-04T13:42:52.274Z,2.73
2018-01-04T13:45:18.506Z,2.37
2018-01-04T13:47:44.737Z,2.70
2018-01-04T13:50:11.157Z,2.43
2018-01-04T13:52:37.388Z,2.50
2018-01-04T13:55:03.609Z,3.00
2018-01-04T13:57:30.964Z,1.97
2018-01-04T13:59:57.208Z,2.80
2018-01-04T14:02:23.447Z,2.60
2018-01-04T14:04:49.699Z,2.10
2018-01-04T14:07:15.908Z,2.50
2018-01-04T14:09:42.121Z,2.53
2018-01-04T14:12:08.363Z,2.80
2018-01-04T14:14:34.589Z,2.63
2018-01-04T14:17:00.820Z,2.53
2018-01-04T14:19:27.061Z,3.17
2018-01-04T14:21:54.012Z,2.43
2018-01-04T14:24:20.237Z,1.83
2018-01-04T14:26:46.444Z,2.10
2018-01-04T14:29:12.688Z,2.47
2018-01-04T14:31:38.993Z,2.43
2018-01-04T14:34:05.282Z,2.23
2018-01-04T14:36:32.326Z,2.37
2018-01-04T14:38:59.278Z,2.30
2018-01-04T14:41:25.510Z,1.80
2018-01-04T14:43:52.558Z,2.00
2018-01-04T14:46:19.527Z,2.12
2018-01-04T14:48:45.811Z,2.50
2018-01-04T14:51:12.027Z,1.30
2018-01-04T14:53:38.241Z,2.20
2018-01-04T14:56:05.194Z,2.30
2018-01-04T14:58:31.618Z,1.17
2018-01-04T15:00:57.874Z,1.60
2018-01-04T15:03:24.090Z,2.60
2018-01-04T15:05:50.319Z,2.03
2018-01-04T15:08:16.568Z,2.70
2018-01-04T15:10:43.599Z,2.53
2018-01-04T15:13:09.938Z,2.93
2018-01-04T15:15:36.460Z,2.60
2018-01-04T15:18:02.803Z,2.67
2018-01-04T15:20:29.083Z,2.53
2018-01-04T15:22:55.446Z,3.87
2018-01-04T15:25:22.641Z,7.27
2018-01-04T15:27:48.878Z,4.80
2018-01-04T15:30:15.116Z,3.60
2018-01-04T15:32:42.078Z,3.70
2018-01-04T15:35:08.330Z,4.53
2018-01-04T15:37:34.578Z,3.77
2018-01-04T15:40:01.632Z,3.30
2018-01-04T15:42:27.978Z,3.70
2018-01-04T15:44:54.201Z,4.50
2018-01-04T15:47:21.249Z,4.00
2018-01-04T15:49:47.514Z,3.00
2018-01-04T15:52:13.728Z,3.63
2018-01-04T15:54:47.087Z,4.80
2018-01-04T15:57:13.328Z,4.30
2018-01-04T15:59:39.638Z,4.20
2018-01-04T16:02:05.883Z,4.10
2018-01-04T16:04:33.000Z,3.70
2018-01-04T16:06:59.359Z,7.30
2018-01-04T16:09:26.432Z,4.40
2018-01-04T16:11:52.724Z,4.73
2018-01-04T16:14:19.054Z,6.90
2018-01-04T16:16:45.412Z,6.70
2018-01-04T16:19:12.510Z,5.00
2018-01-04T16:21:38.899Z,5.30
2018-01-04T16:24:05.877Z,6.17
2018-01-04T16:26:32.108Z,7.10
2018-01-04T16:28:58.348Z,6.70
2018-01-04T16:31:24.617Z,8.33
2018-01-04T16:33:50.870Z,8.67
2018-01-04T16:36:17.905Z,10.20
2018-01-04T16:38:44.234Z,9.00
2018-01-04T16:41:10.573Z,8.67
2018-01-04T16:43:36.904Z,8.57
2018-01-04T16:46:03.177Z,7.43
2018-01-04T16:48:29.461Z,8.33
2018-01-04T16:50:55.798Z,6.57
2018-01-04T16:53:22.837Z,6.60
2018-01-04T16:55:49.884Z,6.70
2018-01-04T16:58:16.251Z,6.30
2018-01-04T17:00:42.560Z,7.03
2018-01-04T17:03:09.605Z,6.07
2018-01-04T17:05:35.856Z,6.27
2018-01-04T17:08:02.132Z,7.93
2018-01-04T17:10:28.371Z,5.63
2018-01-04T17:12:54.618Z,10.60
2018-01-04T17:15:20.849Z,5.63
2018-01-04T17:17:47.833Z,6.30
2018-01-04T17:20:14.090Z,12.00
2018-01-04T17:22:40.350Z,10.43
2018-01-04T17:25:06.578Z,9.27
2018-01-04T17:27:32.791Z,7.37
2018-01-04T17:30:00.122Z,8.13
2018-01-04T17:32:26.344Z,7.40
2018-01-04T17:34:52.590Z,6.33
2018-01-04T17:37:18.822Z,7.37
2018-01-04T17:39:45.048Z,5.90
2018-01-04T17:42:12.009Z,8.20
2018-01-04T17:44:38.268Z,6.20
2018-01-04T17:47:04.485Z,6.07
2018-01-04T17:49:31.445Z,5.63
2018-01-04T17:51:57.665Z,6.27
2018-01-04T17:54:23.911Z,10.43
2018-01-04T17:56:50.118Z,8.27
2018-01-04T17:59:16.336Z,8.10
2018-01-04T18:01:42.594Z,4.70
2018-01-04T18:04:08.838Z,5.67
2018-01-04T18:06:35.046Z,9.30
2018-01-04T18:09:01.262Z,5.70
2018-01-04T18:11:27.608Z,7.80
2018-01-04T18:13:53.809Z,6.97
2018-01-04T18:16:20.039Z,5.60
2018-01-04T18:18:46.362Z,6.90
2018-01-04T18:21:12.654Z,5.67
2018-01-04T18:23:38.884Z,5.07
2018-01-04T18:26:05.106Z,5.17
2018-01-04T18:28:31.333Z,6.67
2018-01-04T18:30:58.354Z,6.03
2018-01-04T18:33:24.570Z,7.07
2018-01-04T18:35:50.825Z,6.60
2018-01-04T18:38:17.032Z,7.20
2018-01-04T18:40:43.283Z,6.87
2018-01-04T18:43:09.558Z,5.60
2018-01-04T18:45:36.212Z,5.80
2018-01-04T18:48:03.185Z,7.20
2018-01-04T18:50:29.423Z,5.63
2018-01-04T18:52:55.682Z,5.93
2018-01-04T18:55:21.941Z,5.40
2018-01-04T18:57:48.901Z,7.40
2018-01-04T19:00:15.138Z,6.77
2018-01-04T19:02:41.395Z,6.10
2018-01-04T19:05:07.616Z,8.30
2018-01-04T19:07:34.004Z,6.77
2018-01-04T19:10:00.977Z,5.50
2018-01-04T19:12:27.207Z,7.30
2018-01-04T19:14:54.176Z,6.43
2018-01-04T19:17:20.401Z,6.97
2018-01-04T19:19:46.648Z,6.53
2018-01-04T19:22:12.877Z,5.40
2018-01-04T19:24:39.110Z,5.90
2018-01-04T19:27:05.369Z,6.30
2018-01-04T19:29:32.367Z,6.40
2018-01-04T19:31:58.643Z,7.73
2018-01-04T19:34:25.688Z,5.33
2018-01-04T19:36:51.934Z,7.20
2018-01-04T19:39:18.917Z,5.60
2018-01-04T19:41:45.178Z,8.30
2018-01-04T19:44:11.517Z,5.80
2018-01-04T19:46:37.779Z,7.80
2018-01-04T19:49:04.016Z,5.60
2018-01-04T19:51:30.240Z,5.67
2018-01-04T19:53:57.251Z,5.87
2018-01-04T19:56:23.611Z,6.43
2018-01-04T19:58:50.630Z,8.30
2018-01-04T20:01:16.869Z,6.97
2018-01-04T20:03:43.282Z,7.13
2018-01-04T20:06:09.545Z,6.60
2018-01-04T20:08:36.803Z,6.60
2018-01-04T20:11:03.836Z,5.77
2018-01-04T20:13:30.820Z,5.43
2018-01-04T20:15:57.886Z,6.53
2018-01-04T20:18:24.228Z,5.63
2018-01-04T20:20:50.535Z,5.83
2018-01-04T20:23:17.513Z,4.10
2018-01-04T20:25:43.785Z,5.90
2018-01-04T20:28:10.833Z,5.50
2018-01-04T20:30:37.055Z,4.20
2018-01-04T20:33:04.144Z,5.47
2018-01-04T20:35:30.419Z,4.63
2018-01-04T20:37:57.403Z,5.67
2018-01-04T20:40:23.705Z,5.77
2018-01-04T20:42:49.964Z,6.47
2018-01-04T20:45:16.288Z,7.10
2018-01-04T20:47:42.567Z,7.97
2018-01-04T20:50:08.789Z,6.20
2018-01-04T20:52:35.157Z,6.47
2018-01-04T20:55:02.211Z,5.53
2018-01-04T20:57:29.210Z,6.30
2018-01-04T20:59:56.261Z,5.17
2018-01-04T21:02:22.493Z,5.00
2018-01-04T21:04:49.484Z,5.40
2018-01-04T21:07:15.816Z,5.40
2018-01-04T21:09:42.069Z,5.23
2018-01-04T21:12:08.332Z,5.83
2018-01-04T21:14:34.661Z,4.47
2018-01-04T21:17:00.893Z,5.70
2018-01-04T21:19:27.114Z,5.77
2018-01-04T21:21:53.350Z,6.13
2018-01-04T21:24:19.584Z,7.00
2018-01-04T21:26:45.892Z,5.90
2018-01-04T21:29:12.140Z,5.10
2018-01-04T21:31:38.368Z,4.30
2018-01-04T21:34:04.739Z,3.80
2018-01-04T21:36:30.985Z,5.90
2018-01-04T21:38:57.942Z,4.53
2018-01-04T21:41:24.478Z,3.27
2018-01-04T21:43:51.588Z,3.33
2018-01-04T21:46:17.901Z,4.10
2018-01-04T21:48:44.110Z,3.70
2018-01-04T21:51:10.377Z,3.60
2018-01-04T21:53:36.729Z,3.67
2018-01-04T21:56:03.061Z,4.90
2018-01-04T21:58:30.203Z,6.00
2018-01-04T22:00:57.560Z,4.93
2018-01-04T22:03:23.772Z,5.30
2018-01-04T22:05:50.001Z,4.30
2018-01-04T22:08:16.255Z,4.07
2018-01-04T22:10:42.468Z,2.87
2018-01-04T22:13:08.858Z,3.23
2018-01-04T22:15:35.135Z,2.43
2018-01-04T22:18:02.241Z,2.23
2018-01-04T22:20:28.481Z,2.57
2018-01-04T22:22:54.734Z,2.33
2018-01-04T22:25:21.777Z,2.10
2018-01-04T22:27:48.836Z,2.23
2018-01-04T22:30:15.133Z,2.30
2018-01-04T22:32:41.501Z,1.80
2018-01-04T22:35:07.825Z,2.63
2018-01-04T22:37:34.912Z,3.23
2018-01-04T22:40:01.149Z,2.23
2018-01-04T22:42:27.396Z,3.40
2018-01-04T22:44:53.746Z,2.40
2018-01-04T22:47:20.069Z,2.37
2018-01-04T22:49:46.790Z,2.13
2018-01-04T22:52:13.079Z,2.87
2018-01-04T22:54:39.316Z,2.27
2018-01-04T22:57:05.703Z,2.40
2018-01-04T22:59:32.035Z,2.33
2018-01-04T23:01:58.320Z,3.07
2018-01-04T23:04:24.629Z,2.33
2018-01-04T23:06:50.952Z,3.23
2018-01-04T23:09:17.209Z,3.30
2018-01-04T23:11:43.430Z,3.50
2018-01-04T23:14:10.401Z,2.97
2018-01-04T23:16:36.688Z,3.60
2018-01-04T23:19:02.935Z,3.10
2018-01-04T23:21:29.189Z,3.37
2018-01-04T23:23:55.496Z,3.40
2018-01-04T23:26:22.488Z,2.80
2018-01-04T23:28:48.825Z,3.23
2018-01-04T23:31:17.192Z,2.60
2018-01-04T23:33:43.438Z,2.67
2018-01-04T23:36:09.686Z,2.50
2018-01-04T23:38:36.012Z,3.03
2018-01-04T23:41:03.033Z,2.70
2018-01-04T23:43:29.324Z,3.03
2018-01-04T23:45:55.523Z,2.77
2018-01-04T23:48:21.753Z,2.53
2018-01-04T23:50:47.997Z,2.40
2018-01-04T23:53:14.209Z,2.30
2018-01-04T23:55:40.467Z,2.53
2018-01-04T23:58:06.649Z,2.70
